Powderhorn, Colorado
Current Conditions -  °F | °C
As of 5:35 PM on Sunday 21 Dec 2014 (Local Time) from KAJZ Reporting Station
Broken Clouds Broken Clouds  
Wind Chill: 31°   Ceiling: 7500
Heat Index: 35°   Visibility: 10mi
Dew Point: 32°   Wind: 5mph
Humidity: 90%   Direction: 200°SSW
Pressure: 29.93"   Gusts: NA
Location:  39.07°N, 108.15°W
Report Text: KAJZ 220035Z AUTO 20004KT 10SM SCT014 BKN075 BKN120 02/00 A2993 RMK AO2 T00150000
Loading
Personal Weather Stations






























Interactive Weather Map New forecast layout! Learn more

10-Day Weather Forecast

Advertisements
Track Severe Weather on mobile